createdAt,value
2023-04-23T00:02:13.315Z,100751.75
2023-04-23T00:04:52.935Z,100747.38
2023-04-23T00:07:22.855Z,100748.25
2023-04-23T00:09:56.748Z,100743.03
2023-04-23T00:12:26.387Z,100747.38
2023-04-23T00:14:55.851Z,100750.00
2023-04-23T00:17:24.721Z,100743.88
2023-04-23T00:19:53.240Z,100754.38
2023-04-23T00:22:22.128Z,100751.75
2023-04-23T00:24:52.065Z,100749.13
2023-04-23T00:27:31.623Z,100755.22
2023-04-23T00:30:00.049Z,100760.44
2023-04-23T00:32:28.563Z,100761.34
2023-04-23T00:34:57.223Z,100756.97
2023-04-23T00:37:26.148Z,100751.72
2023-04-23T00:39:56.505Z,100752.56
2023-04-23T00:42:24.949Z,100743.84
2023-04-23T00:44:54.101Z,100742.97
2023-04-23T00:47:23.575Z,100742.94
2023-04-23T00:49:55.694Z,100749.03
2023-04-23T00:52:24.137Z,100742.91
2023-04-23T00:54:52.866Z,100749.88
2023-04-23T00:57:23.518Z,100742.91
2023-04-23T00:59:52.118Z,100742.00
2023-04-23T01:02:20.933Z,100740.25
2023-04-23T01:04:51.730Z,100739.38
2023-04-23T01:07:20.479Z,100745.44
2023-04-23T01:09:50.566Z,100750.69
2023-04-23T01:12:19.601Z,100748.06
2023-04-23T01:14:49.671Z,100755.03
2023-04-23T01:17:18.071Z,100746.31
2023-04-23T01:19:46.634Z,100751.53
2023-04-23T01:22:17.575Z,100750.69
2023-04-23T01:24:46.272Z,100748.06
2023-04-23T01:27:14.837Z,100748.03
2023-04-23T01:29:43.817Z,100749.81
2023-04-23T01:32:12.595Z,100742.81
2023-04-23T01:34:42.846Z,100753.25
2023-04-23T01:37:12.516Z,100748.00
2023-04-23T01:39:42.434Z,100745.41
2023-04-23T01:42:11.180Z,100748.03
2023-04-23T01:44:39.961Z,100751.53
2023-04-23T01:47:08.777Z,100753.25
2023-04-23T01:49:37.375Z,100758.50
2023-04-23T01:52:05.988Z,100755.00
2023-04-23T01:54:34.389Z,100749.78
2023-04-23T01:57:04.394Z,100753.22
2023-04-23T01:59:32.898Z,100761.09
2023-04-23T02:02:01.520Z,100756.72
2023-04-23T02:04:32.040Z,100757.56
2023-04-23T02:07:01.361Z,100751.47
2023-04-23T02:09:29.728Z,100746.22
2023-04-23T02:11:58.334Z,100753.16
2023-04-23T02:14:28.213Z,100754.00
2023-04-23T02:16:57.813Z,100748.75
2023-04-23T02:19:26.469Z,100745.22
2023-04-23T02:21:54.940Z,100746.06
2023-04-23T02:24:23.921Z,100739.94
2023-04-23T02:26:52.490Z,100751.22
2023-04-23T02:29:23.800Z,100749.41
2023-04-23T02:31:53.796Z,100743.28
2023-04-23T02:34:22.690Z,100739.78
2023-04-23T02:36:51.118Z,100738.00
2023-04-23T02:39:19.804Z,100735.38
2023-04-23T02:41:48.382Z,100742.28
2023-04-23T02:44:16.938Z,100739.66
2023-04-23T02:46:46.277Z,100724.78
2023-04-23T02:49:16.194Z,100736.06
2023-04-23T02:51:44.690Z,100727.34
2023-04-23T02:54:13.953Z,100724.72
2023-04-23T02:56:42.402Z,100719.44
2023-04-23T02:59:11.255Z,100723.78
2023-04-23T03:01:39.699Z,100722.88
2023-04-23T03:04:08.204Z,100739.38
2023-04-23T03:06:38.126Z,100735.03
2023-04-23T03:09:06.924Z,100727.16
2023-04-23T03:11:35.592Z,100726.22
2023-04-23T03:14:04.013Z,100720.13
2023-04-23T03:16:33.158Z,100724.44
2023-04-23T03:19:02.225Z,100716.56
2023-04-23T03:21:30.686Z,100718.31
2023-04-23T03:24:00.394Z,100717.44
2023-04-23T03:26:28.756Z,100713.94
2023-04-23T03:28:57.326Z,100723.50
2023-04-23T03:31:26.043Z,100721.72
2023-04-23T03:33:54.771Z,100713.81
2023-04-23T03:36:23.526Z,100702.50
2023-04-23T03:38:52.755Z,100714.69
2023-04-23T03:41:23.169Z,100713.81
2023-04-23T03:43:52.126Z,100700.75
2023-04-23T03:46:21.455Z,100703.38
2023-04-23T03:48:49.921Z,100699.00
2023-04-23T03:51:18.412Z,100688.56
2023-04-23T03:53:46.994Z,100685.94
2023-04-23T03:56:15.639Z,100680.72
2023-04-23T03:58:45.476Z,100683.34
2023-04-23T04:01:13.952Z,100682.47
2023-04-23T04:03:42.619Z,100673.75
2023-04-23T04:06:11.899Z,100674.63
2023-04-23T04:08:40.350Z,100676.38
2023-04-23T04:11:08.733Z,100679.88
2023-04-23T04:13:37.259Z,100677.25
2023-04-23T04:16:07.994Z,100681.63
2023-04-23T04:18:36.775Z,100683.41
2023-04-23T04:21:05.888Z,100679.13
2023-04-23T04:23:35.100Z,100680.03
2023-04-23T04:26:03.671Z,100680.94
2023-04-23T04:28:36.308Z,100680.09
2023-04-23T04:31:06.875Z,100679.22
2023-04-23T04:33:36.073Z,100676.66
2023-04-23T04:36:05.088Z,100681.06
2023-04-23T04:38:33.557Z,100679.34
2023-04-23T04:41:02.732Z,100671.56
2023-04-23T04:43:31.197Z,100673.34
2023-04-23T04:46:00.353Z,100679.44
2023-04-23T04:48:30.136Z,100681.22
2023-04-23T04:50:59.073Z,100677.81
2023-04-23T04:53:27.845Z,100682.19
2023-04-23T04:55:58.315Z,100679.59
2023-04-23T04:58:27.298Z,100670.94
2023-04-23T05:00:56.353Z,100679.66
2023-04-23T05:03:25.006Z,100683.16
2023-04-23T05:05:56.553Z,100674.47
2023-04-23T05:08:24.963Z,100685.81
2023-04-23T05:10:56.484Z,100688.47
2023-04-23T05:13:25.888Z,100683.25
2023-04-23T05:15:54.538Z,100673.69
2023-04-23T05:18:23.281Z,100678.06
2023-04-23T05:20:52.235Z,100682.47
2023-04-23T05:23:22.636Z,100691.22
2023-04-23T05:25:54.166Z,100681.69
2023-04-23T05:28:25.180Z,100678.22
2023-04-23T05:30:53.910Z,100678.25
2023-04-23T05:33:33.395Z,100678.25
2023-04-23T05:36:05.353Z,100680.00
2023-04-23T05:38:35.556Z,100679.16
2023-04-23T05:41:04.112Z,100678.25
2023-04-23T05:43:32.626Z,100689.63
2023-04-23T05:46:01.023Z,100673.94
2023-04-23T05:48:31.124Z,100672.19
2023-04-23T05:51:00.044Z,100665.22
2023-04-23T05:53:29.693Z,100671.34
2023-04-23T05:55:59.682Z,100660.91
2023-04-23T05:58:28.111Z,100649.56
2023-04-23T06:00:57.711Z,100647.84
2023-04-23T06:03:26.925Z,100645.22
2023-04-23T06:05:56.293Z,100638.22
2023-04-23T06:08:27.499Z,100646.06
2023-04-23T06:10:56.271Z,100650.44
2023-04-23T06:13:28.156Z,100652.16
2023-04-23T06:15:57.118Z,100650.41
2023-04-23T06:18:27.604Z,100638.19
2023-04-23T06:20:57.032Z,100636.44
2023-04-23T06:23:25.946Z,100639.03
2023-04-23T06:25:54.377Z,100640.78
2023-04-23T06:28:22.910Z,100635.56
2023-04-23T06:30:53.264Z,100639.00
2023-04-23T06:33:22.106Z,100649.44
2023-04-23T06:35:51.135Z,100638.03
2023-04-23T06:38:21.282Z,100633.63
2023-04-23T06:40:49.844Z,100635.34
2023-04-23T06:43:18.455Z,100630.94
2023-04-23T06:45:47.313Z,100623.91
2023-04-23T06:48:18.651Z,100623.94
2023-04-23T06:50:47.530Z,100623.09
2023-04-23T06:53:16.032Z,100620.47
2023-04-23T06:55:44.448Z,100613.47
2023-04-23T06:58:14.196Z,100612.59
2023-04-23T07:00:43.892Z,100610.78
2023-04-23T07:03:12.934Z,100609.84
2023-04-23T07:05:42.894Z,100614.19
2023-04-23T07:08:11.282Z,100605.34
2023-04-23T07:10:39.643Z,100605.28
2023-04-23T07:13:08.001Z,100609.59
2023-04-23T07:15:38.008Z,100606.84
2023-04-23T07:18:07.361Z,100607.59
2023-04-23T07:20:35.871Z,100604.84
2023-04-23T07:23:06.346Z,100603.81
2023-04-23T07:25:34.769Z,100602.81
2023-04-23T07:28:04.240Z,100588.66
2023-04-23T07:30:32.699Z,100589.41
2023-04-23T07:33:01.190Z,100585.81
2023-04-23T07:35:29.600Z,100583.09
2023-04-23T07:37:58.055Z,100578.59
2023-04-23T07:40:28.136Z,100568.84
2023-04-23T07:42:58.936Z,100572.25
2023-04-23T07:45:27.559Z,100579.13
2023-04-23T07:47:56.565Z,100571.00
2023-04-23T07:50:25.061Z,100575.16
2023-04-23T07:52:53.849Z,100576.63
2023-04-23T07:55:22.560Z,100577.22
2023-04-23T07:57:52.427Z,100566.59
2023-04-23T08:00:21.247Z,100578.63
2023-04-23T08:02:50.021Z,100575.63
2023-04-23T08:05:18.494Z,100570.69
2023-04-23T08:07:46.847Z,100567.63
2023-04-23T08:10:15.216Z,100561.31
2023-04-23T08:12:43.573Z,100562.09
2023-04-23T08:15:14.019Z,100563.66
2023-04-23T08:17:42.652Z,100554.66
2023-04-23T08:20:12.195Z,100552.97
2023-04-23T08:22:40.611Z,100552.53
2023-04-23T08:25:10.808Z,100552.75
2023-04-23T08:27:39.158Z,100548.69
2023-04-23T08:30:13.944Z,100549.78
2023-04-23T08:32:44.229Z,100551.03
2023-04-23T08:35:13.569Z,100554.53
2023-04-23T08:37:42.106Z,100552.16
2023-04-23T08:40:11.499Z,100541.09
2023-04-23T08:42:45.079Z,100537.31
2023-04-23T08:45:15.040Z,100542.28
2023-04-23T08:47:45.454Z,100536.81
2023-04-23T08:50:16.561Z,100531.31
2023-04-23T08:52:52.066Z,100536.19
2023-04-23T08:55:21.277Z,100543.63
2023-04-23T08:57:50.985Z,100545.84
2023-04-23T09:00:23.221Z,100535.09
2023-04-23T09:02:54.399Z,100534.81
2023-04-23T09:05:23.447Z,100535.28
2023-04-23T09:07:53.006Z,100535.97
2023-04-23T09:10:22.138Z,100544.66
2023-04-23T09:12:50.864Z,100532.41
2023-04-23T09:15:19.665Z,100540.13
2023-04-23T09:17:49.870Z,100540.81
2023-04-23T09:20:20.054Z,100551.03
2023-04-23T09:22:49.936Z,100541.47
2023-04-23T09:25:20.360Z,100533.69
2023-04-23T09:27:50.172Z,100532.97
2023-04-23T09:30:20.139Z,100533.72
2023-04-23T09:32:49.841Z,100536.16
2023-04-23T09:35:22.670Z,100528.22
2023-04-23T09:37:53.374Z,100532.16
2023-04-23T09:40:25.324Z,100537.97
2023-04-23T09:42:55.184Z,100535.16
2023-04-23T09:45:25.172Z,100534.88
2023-04-23T09:47:55.998Z,100535.56
2023-04-23T09:50:37.000Z,100533.94
2023-04-23T09:53:06.496Z,100532.16
2023-04-23T09:55:38.716Z,100542.59
2023-04-23T09:58:11.551Z,100528.84
2023-04-23T10:00:41.555Z,100516.13
2023-04-23T10:03:12.150Z,100516.38
2023-04-23T10:06:00.217Z,100512.28
2023-04-23T10:08:30.431Z,100510.44
2023-04-23T10:11:13.519Z,100518.69
2023-04-23T10:13:47.611Z,100521.16
2023-04-23T10:16:23.098Z,100518.03
2023-04-23T10:18:57.002Z,100513.88
2023-04-23T10:21:46.657Z,100505.00
2023-04-23T10:24:22.135Z,100515.53
2023-04-23T10:26:52.896Z,100516.84
2023-04-23T10:29:29.100Z,100509.59
2023-04-23T10:31:59.897Z,100505.97
2023-04-23T10:34:30.281Z,100509.50
2023-04-23T10:37:02.460Z,100509.78
2023-04-23T10:39:34.590Z,100503.81
2023-04-23T10:42:04.297Z,100510.34
2023-04-23T10:47:15.700Z,100507.59
2023-04-23T10:49:45.384Z,100500.91
2023-04-23T10:52:20.322Z,100502.09
2023-04-23T10:54:58.020Z,100503.47
2023-04-23T10:57:26.492Z,100495.34
2023-04-23T10:59:59.025Z,100494.31
2023-04-23T11:02:28.218Z,100496.31
2023-04-23T11:04:58.861Z,100490.22
2023-04-23T11:07:33.952Z,100489.03
2023-04-23T11:10:12.888Z,100484.72
2023-04-23T11:12:42.360Z,100488.75
2023-04-23T11:15:15.390Z,100490.25
2023-04-23T11:18:03.397Z,100483.38
2023-04-23T11:20:31.980Z,100470.72
2023-04-23T11:23:01.900Z,100477.00
2023-04-23T11:25:30.627Z,100470.28
2023-04-23T11:28:00.200Z,100471.59
2023-04-23T11:30:30.967Z,100459.19
2023-04-23T11:33:01.553Z,100463.59
2023-04-23T11:35:37.948Z,100464.03
2023-04-23T11:38:11.322Z,100461.06
2023-04-23T11:40:40.727Z,100452.69
2023-04-23T11:43:09.813Z,100456.16
2023-04-23T11:45:38.357Z,100459.06
2023-04-23T11:48:08.014Z,100454.97
2023-04-23T11:50:38.521Z,100453.66
2023-04-23T11:53:07.675Z,100450.97
2023-04-23T11:55:38.229Z,100441.03
2023-04-23T11:58:06.703Z,100447.78
2023-04-23T12:00:35.287Z,100439.03
2023-04-23T12:03:06.071Z,100445.31
2023-04-23T12:05:37.022Z,100443.75
2023-04-23T12:08:10.203Z,100441.19
2023-04-23T12:10:49.541Z,100433.00
2023-04-23T12:13:20.431Z,100430.06
2023-04-23T12:15:51.156Z,100430.16
2023-04-23T12:18:20.035Z,100432.38
2023-04-23T12:20:48.605Z,100420.31
2023-04-23T12:23:17.030Z,100423.59
2023-04-23T12:25:46.906Z,100432.16
2023-04-23T12:28:15.545Z,100430.84
2023-04-23T12:30:47.248Z,100432.34
2023-04-23T12:33:15.775Z,100422.72
2023-04-23T12:35:46.470Z,100427.19
2023-04-23T12:38:25.877Z,100417.78
2023-04-23T12:41:01.905Z,100407.06
2023-04-23T12:43:30.358Z,100400.66
2023-04-23T12:45:58.742Z,100398.34
2023-04-23T12:48:27.553Z,100391.72
2023-04-23T12:50:56.375Z,100409.06
2023-04-23T12:53:24.825Z,100402.16
2023-04-23T12:55:55.309Z,100396.59
2023-04-23T12:58:23.693Z,100401.56
2023-04-23T13:00:52.558Z,100397.72
2023-04-23T13:03:21.433Z,100387.97
2023-04-23T13:05:50.282Z,100382.97
2023-04-23T13:08:18.668Z,100386.84
2023-04-23T13:10:47.021Z,100381.19
2023-04-23T13:13:16.770Z,100377.69
2023-04-23T13:15:45.243Z,100371.84
2023-04-23T13:18:13.576Z,100375.56
2023-04-23T13:20:41.959Z,100372.56
2023-04-23T13:23:11.575Z,100364.03
2023-04-23T13:25:40.088Z,100353.25
2023-04-23T13:28:08.909Z,100349.06
2023-04-23T13:30:39.757Z,100350.56
2023-04-23T13:33:08.213Z,100343.19
2023-04-23T13:35:38.077Z,100338.59
2023-04-23T13:38:06.466Z,100336.34
2023-04-23T13:40:35.521Z,100334.72
2023-04-23T13:43:03.878Z,100330.41
2023-04-23T13:45:32.423Z,100320.97
2023-04-23T13:48:09.052Z,100311.03
2023-04-23T13:50:38.104Z,100319.16
2023-04-23T13:53:06.597Z,100311.72
2023-04-23T13:55:34.938Z,100302.28
2023-04-23T13:58:03.837Z,100299.22
2023-04-23T14:00:32.533Z,100295.16
2023-04-23T14:03:02.365Z,100291.47
2023-04-23T14:05:31.860Z,100288.63
2023-04-23T14:08:00.222Z,100282.81
2023-04-23T14:10:29.501Z,100279.88
2023-04-23T14:12:58.472Z,100281.00
2023-04-23T14:15:27.613Z,100284.91
2023-04-23T14:17:56.381Z,100282.38
2023-04-23T14:20:26.374Z,100277.72
2023-04-23T14:23:03.590Z,100278.22
2023-04-23T14:25:38.204Z,100279.94
2023-04-23T14:28:29.862Z,100280.84
2023-04-23T14:30:59.433Z,100275.56
2023-04-23T14:33:28.100Z,100277.25
2023-04-23T14:35:58.359Z,100271.53
2023-04-23T14:38:27.732Z,100263.63
2023-04-23T14:40:58.533Z,100261.50
2023-04-23T14:43:27.253Z,100261.84
2023-04-23T14:45:55.910Z,100257.78
2023-04-23T14:48:24.868Z,100254.78
2023-04-23T14:50:53.434Z,100258.66
2023-04-23T14:53:27.659Z,100252.88
2023-04-23T14:55:56.673Z,100239.94
2023-04-23T14:58:25.435Z,100241.63
2023-04-23T15:00:54.379Z,100245.56
2023-04-23T15:03:23.737Z,100237.09
2023-04-23T15:05:52.764Z,100238.66
2023-04-23T15:08:24.053Z,100230.09
2023-04-23T15:10:52.643Z,100233.47
2023-04-23T15:13:39.821Z,100231.38
2023-04-23T15:16:28.425Z,100220.28
2023-04-23T15:19:10.172Z,100225.06
2023-04-23T15:21:39.067Z,100211.47
2023-04-23T15:24:08.975Z,100217.34
2023-04-23T15:26:37.820Z,100212.06
2023-04-23T15:29:09.069Z,100209.47
2023-04-23T15:31:37.934Z,100204.97
2023-04-23T15:34:12.430Z,100206.94
2023-04-23T15:36:41.298Z,100202.84
2023-04-23T15:39:11.130Z,100206.41
2023-04-23T15:41:41.523Z,100203.38
2023-04-23T15:44:12.492Z,100196.44
2023-04-23T15:46:41.523Z,100205.47
2023-04-23T15:49:09.965Z,100215.19
2023-04-23T15:51:38.930Z,100202.22
2023-04-23T15:54:09.045Z,100203.94
2023-04-23T15:56:42.140Z,100207.16
2023-04-23T15:59:11.023Z,100202.72
2023-04-23T16:01:39.789Z,100190.03
2023-04-23T16:04:10.401Z,100183.97
2023-04-23T16:06:40.137Z,100185.22
2023-04-23T16:09:08.953Z,100176.53
2023-04-23T16:11:39.953Z,100172.69
2023-04-23T16:14:10.149Z,100169.34
2023-04-23T16:16:39.412Z,100173.00
2023-04-23T16:19:07.882Z,100165.78
2023-04-23T16:21:36.310Z,100169.34
2023-04-23T16:24:07.902Z,100159.47
2023-04-23T16:26:37.432Z,100157.59
2023-04-23T16:29:21.607Z,100161.41
2023-04-23T16:31:51.449Z,100144.69
2023-04-23T16:34:20.077Z,100138.47
2023-04-23T16:36:50.088Z,100136.75
2023-04-23T16:39:20.817Z,100141.88
2023-04-23T16:41:49.282Z,100128.28
2023-04-23T16:44:19.251Z,100126.94
2023-04-23T16:46:47.778Z,100122.09
2023-04-23T16:49:16.294Z,100126.28
2023-04-23T16:51:45.328Z,100131.38
2023-04-23T16:54:13.706Z,100129.28
2023-04-23T16:56:42.415Z,100131.47
2023-04-23T16:59:10.722Z,100124.03
2023-04-23T17:01:40.462Z,100122.63
2023-04-23T17:04:09.601Z,100132.72
2023-04-23T17:06:38.166Z,100128.69
2023-04-23T17:09:08.969Z,100136.28
2023-04-23T17:11:37.353Z,100154.00
2023-04-23T17:14:05.821Z,100148.00
2023-04-23T17:16:34.428Z,100146.59
2023-04-23T17:19:04.398Z,100138.41
2023-04-23T17:21:33.034Z,100142.13
2023-04-23T17:24:02.753Z,100149.09
2023-04-23T17:26:31.256Z,100139.91
2023-04-23T17:29:00.313Z,100136.03
2023-04-23T17:31:28.814Z,100128.50
2023-04-23T17:33:58.829Z,100126.28
2023-04-23T17:36:28.649Z,100124.78
2023-04-23T17:38:59.869Z,100117.06
2023-04-23T17:41:28.460Z,100113.75
2023-04-23T17:43:57.955Z,100116.63
2023-04-23T17:46:27.161Z,100123.88
2023-04-23T17:48:56.499Z,100119.59
2023-04-23T17:51:25.301Z,100123.38
2023-04-23T17:53:59.745Z,100129.88
2023-04-23T17:56:29.040Z,100145.16
2023-04-23T17:58:58.417Z,100157.13
2023-04-23T18:01:27.892Z,100146.47
2023-04-23T18:03:57.051Z,100123.97
2023-04-23T18:06:26.713Z,100104.31
2023-04-23T18:08:57.980Z,100106.06
2023-04-23T18:11:27.620Z,100107.38
2023-04-23T18:13:56.918Z,100097.19
2023-04-23T18:16:26.478Z,100091.34
2023-04-23T18:18:56.454Z,100097.72
2023-04-23T18:21:26.416Z,100112.75
2023-04-23T18:23:58.453Z,100134.81
2023-04-23T18:26:29.255Z,100143.56
2023-04-23T18:28:58.524Z,100183.00
2023-04-23T18:31:29.031Z,100191.09
2023-04-23T18:34:03.760Z,100182.19
2023-04-23T18:36:36.575Z,100177.47
2023-04-23T18:39:07.455Z,100167.31
2023-04-23T18:41:36.091Z,100178.00
2023-04-23T18:44:08.337Z,100163.31
2023-04-23T18:46:37.182Z,100159.13
2023-04-23T18:49:08.081Z,100154.06
2023-04-23T18:51:45.063Z,100160.41
2023-04-23T18:54:15.997Z,100164.09
2023-04-23T18:56:45.036Z,100173.84
2023-04-23T18:59:14.081Z,100161.63
2023-04-23T19:01:44.685Z,100162.50
2023-04-23T19:04:15.343Z,100167.72
2023-04-23T19:06:44.445Z,100164.25
2023-04-23T19:09:14.430Z,100164.28
2023-04-23T19:11:47.909Z,100158.19
2023-04-23T19:14:19.730Z,100160.97
2023-04-23T19:16:50.694Z,100150.38
2023-04-23T19:19:21.251Z,100152.06
2023-04-23T19:21:50.070Z,100144.91
2023-04-23T19:24:22.647Z,100138.56
2023-04-23T19:26:51.524Z,100140.06
2023-04-23T19:29:25.007Z,100137.34
2023-04-23T19:31:54.527Z,100131.97
2023-04-23T19:34:23.088Z,100138.91
2023-04-23T19:36:51.860Z,100119.53
2023-04-23T19:39:23.710Z,100119.53
2023-04-23T19:41:52.725Z,100107.31
2023-04-23T19:44:21.926Z,100112.56
2023-04-23T19:46:50.568Z,100103.84
2023-04-23T19:49:19.599Z,100091.63
2023-04-23T19:51:48.514Z,100097.91
2023-04-23T19:54:16.878Z,100095.31
2023-04-23T19:56:46.846Z,100086.59
2023-04-23T19:59:17.007Z,100084.88
2023-04-23T20:01:45.420Z,100086.66
2023-04-23T20:04:13.933Z,100077.06
2023-04-23T20:06:43.306Z,100086.69
2023-04-23T20:09:18.249Z,100072.66
2023-04-23T20:11:48.802Z,100062.13
2023-04-23T20:14:17.158Z,100058.66
2023-04-23T20:16:46.594Z,100058.69
2023-04-23T20:19:15.880Z,100053.50
2023-04-23T20:21:45.738Z,100042.22
2023-04-23T20:24:15.552Z,100032.69
2023-04-23T20:26:44.236Z,100040.75
2023-04-23T20:29:14.401Z,100042.50
2023-04-23T20:31:42.908Z,100039.84
2023-04-23T20:34:11.656Z,100038.94
2023-04-23T20:36:40.049Z,100031.06
2023-04-23T20:39:08.425Z,100032.84
2023-04-23T20:41:36.935Z,100031.09
2023-04-23T20:44:09.155Z,100019.78
2023-04-23T20:46:39.536Z,100020.66
2023-04-23T20:49:08.819Z,100014.56
2023-04-23T20:51:37.272Z,100009.31
2023-04-23T20:54:06.232Z,100007.63
2023-04-23T20:56:34.690Z,100005.00
2023-04-23T20:59:03.118Z,100002.47
2023-04-23T21:01:31.632Z,99991.97
2023-04-23T21:04:02.691Z,99988.50
2023-04-23T21:06:33.451Z,99985.88
2023-04-23T21:09:01.945Z,99973.72
2023-04-23T21:11:31.293Z,99972.00
2023-04-23T21:14:01.143Z,99969.44
2023-04-23T21:16:31.364Z,99950.25
2023-04-23T21:19:01.462Z,99952.00
2023-04-23T21:21:31.734Z,99953.75
2023-04-23T21:24:01.035Z,99936.34
2023-04-23T21:26:31.548Z,99936.44
2023-04-23T21:29:00.320Z,99930.38
2023-04-23T21:31:44.924Z,99924.31
2023-04-23T21:34:15.533Z,99919.09
2023-04-23T21:36:44.797Z,99910.38
2023-04-23T21:39:14.001Z,99906.00
2023-04-23T21:41:44.791Z,99905.16
2023-04-23T21:44:13.232Z,99893.78
2023-04-23T21:46:44.907Z,99893.78
2023-04-23T21:49:15.073Z,99883.34
2023-04-23T21:51:44.614Z,99878.94
2023-04-23T21:54:12.928Z,99880.72
2023-04-23T21:56:41.931Z,99875.44
2023-04-23T21:59:11.743Z,99871.94
2023-04-23T22:01:41.224Z,99876.34
2023-04-23T22:04:10.268Z,99862.31
2023-04-23T22:06:40.320Z,99864.97
2023-04-23T22:09:10.281Z,99865.91
2023-04-23T22:11:39.048Z,99847.53
2023-04-23T22:14:09.111Z,99846.66
2023-04-23T22:16:37.604Z,99851.94
2023-04-23T22:19:06.105Z,99851.06
2023-04-23T22:21:54.736Z,99852.75
2023-04-23T22:24:25.402Z,99841.28
2023-04-23T22:26:54.177Z,99836.03
2023-04-23T22:29:26.721Z,99829.88
2023-04-23T22:31:55.533Z,99829.94
2023-04-23T22:34:25.693Z,99830.78
2023-04-23T22:36:55.781Z,99815.84
2023-04-23T22:39:24.718Z,99809.66
2023-04-23T22:41:55.548Z,99812.28
2023-04-23T22:44:23.997Z,99814.03
2023-04-23T22:46:53.124Z,99805.31
2023-04-23T22:49:22.012Z,99806.28
2023-04-23T22:51:50.821Z,99802.09
2023-04-23T22:54:20.908Z,99795.13
2023-04-23T22:56:49.711Z,99793.44
2023-04-23T22:59:20.865Z,99803.88
2023-04-23T23:01:50.684Z,99795.13
2023-04-23T23:04:19.334Z,99788.13
2023-04-23T23:06:47.698Z,99784.53
2023-04-23T23:09:16.080Z,99778.44
2023-04-23T23:11:46.268Z,99771.41
2023-04-23T23:14:14.697Z,99773.09
2023-04-23T23:16:43.164Z,99772.19
2023-04-23T23:19:12.470Z,99762.53
2023-04-23T23:21:42.490Z,99756.38
2023-04-23T23:24:10.867Z,99759.00
2023-04-23T23:26:39.592Z,99745.84
2023-04-23T23:29:09.426Z,99740.66
2023-04-23T23:31:38.024Z,99738.88
2023-04-23T23:34:06.772Z,99732.78
2023-04-23T23:36:35.340Z,99729.25
2023-04-23T23:39:04.544Z,99731.84
2023-04-23T23:41:33.147Z,99737.94
2023-04-23T23:44:01.579Z,99727.53
2023-04-23T23:46:31.714Z,99724.13
2023-04-23T23:49:00.296Z,99720.66
2023-04-23T23:51:30.927Z,99716.34
2023-04-23T23:53:59.548Z,99722.69
2023-04-23T23:56:28.418Z,99726.38
2023-04-23T23:58:56.980Z,99720.47
